Winchester, VA

8:21 AM EST on February 27, 2015 (GMT -0500)
Health Professions Building | Change Station
CLOSE
Current Station
Personal Weather Station
Location: Winchester, VA
Elevation: 873 ft
Nearby Weather Stations

Elev 873 ft 39.20 °N, 78.19 °W | Updated 2 seconds ago

Clear
Clear
19.9 °F
Feels Like 9 °F
N
10.1
Wind Variable Wind from West
Gusts 11.0 mph

Today
High -- | Low -- °F
--% Chance of Precip.
Yesterday
High -- | Low -- °F
Precip. -- in
6:48 AM 6:02 PM
Waxing Gibbous, 68% visible
Pressure 30.38 in
Visibility 10.0 miles
Clouds Clear
Windchill 9 °F
Dew Point 8 °F
Humidity 58%
Rainfall 0.00 in
Snow Depth Not available.
UV 1 out of 12
Pollen .40 out of 12
Air Quality Not available.
Flu Activity Not available.
METAR KOKV 271315Z AUTO 34008KT 10SM CLR M05/M16 A3038 RMK AO2

More Conditions Fewer Conditions

Pressure 30.38 in
Visibility 10.0 miles
Clouds Clear
Windchill 9 °F
Dew Point 8 °F
Humidity 58%
Rainfall 0.00 in
Snow Depth Not available.
UV 1 out of 12
Pollen .40 out of 12
Air Quality Not available.
Flu Activity Not available.
METAR KOKV 271315Z AUTO 34008KT 10SM CLR M05/M16 A3038 RMK AO2

More Conditions Fewer Conditions

10-Day Weather Forecast

Almanac

Astronomy

Feb. 27, 2015 Rise Set
Actual Time
Civil Twilight
Nautical Twilight
Astronomical Twilight
Moon
Length of Visible Light
Length of Day
Tomorrow will be .
, % of the Moon is Illuminated

Today's Extremes

State Highs State Lows

Community

WunderPhotos

Upload Photos

1,800,673 photos uploaded!

WunderBlogs® & News

Nearby

Air Quality

  Air Quality AQ Index Pollutant
Not available.

Snow Depth

Station Depth Elevation

Earthquake Activity

City Distance Mag. Time & Date
Minimum magnitude displayed is 2.5.

Coastal Water Temperatures

Place Temperature

Nearby Weather Stations